sensor_id;sensor_type;location;lat;lon;timestamp;P1;durP1;ratioP1;P2;durP2;ratioP2
14078;SDS011;7115;50.150;8.568;2022-08-04T00:02:29;2.17;;;1.50;;
14078;SDS011;7115;50.150;8.568;2022-08-04T00:05:08;1.97;;;1.60;;
14078;SDS011;7115;50.150;8.568;2022-08-04T00:07:46;2.07;;;1.30;;
14078;SDS011;7115;50.150;8.568;2022-08-04T00:10:19;2.00;;;1.40;;
14078;SDS011;7115;50.150;8.568;2022-08-04T00:12:50;2.17;;;1.60;;
14078;SDS011;7115;50.150;8.568;2022-08-04T00:15:20;1.40;;;1.30;;
14078;SDS011;7115;50.150;8.568;2022-08-04T00:24:00;2.20;;;1.43;;
14078;SDS011;7115;50.150;8.568;2022-08-04T00:26:38;1.50;;;1.40;;
14078;SDS011;7115;50.150;8.568;2022-08-04T00:29:05;2.83;;;1.40;;
14078;SDS011;7115;50.150;8.568;2022-08-04T00:31:32;2.83;;;1.40;;
14078;SDS011;7115;50.150;8.568;2022-08-04T00:34:19;5.17;;;2.00;;
14078;SDS011;7115;50.150;8.568;2022-08-04T00:36:46;2.27;;;1.70;;
14078;SDS011;7115;50.150;8.568;2022-08-04T00:39:14;2.00;;;1.40;;
14078;SDS011;7115;50.150;8.568;2022-08-04T00:41:51;3.93;;;2.10;;
14078;SDS011;7115;50.150;8.568;2022-08-04T00:44:50;4.87;;;1.70;;
14078;SDS011;7115;50.150;8.568;2022-08-04T00:47:34;1.77;;;1.53;;
14078;SDS011;7115;50.150;8.568;2022-08-04T00:50:24;4.40;;;1.97;;
14078;SDS011;7115;50.150;8.568;2022-08-04T00:53:06;2.83;;;1.60;;
14078;SDS011;7115;50.150;8.568;2022-08-04T00:55:45;2.93;;;1.53;;
14078;SDS011;7115;50.150;8.568;2022-08-04T00:58:26;2.53;;;1.90;;
14078;SDS011;7115;50.150;8.568;2022-08-04T01:12:22;2.90;;;1.90;;
14078;SDS011;7115;50.150;8.568;2022-08-04T01:15:05;1.87;;;1.53;;
14078;SDS011;7115;50.150;8.568;2022-08-04T01:35:04;1.90;;;1.70;;
14078;SDS011;7115;50.150;8.568;2022-08-04T01:45:41;4.07;;;1.80;;
14078;SDS011;7115;50.150;8.568;2022-08-04T01:48:14;4.07;;;2.43;;
14078;SDS011;7115;50.150;8.568;2022-08-04T01:50:48;1.80;;;1.70;;
14078;SDS011;7115;50.150;8.568;2022-08-04T01:53:19;2.67;;;1.80;;
14078;SDS011;7115;50.150;8.568;2022-08-04T01:55:47;2.00;;;1.60;;
14078;SDS011;7115;50.150;8.568;2022-08-04T01:58:21;2.60;;;1.70;;
14078;SDS011;7115;50.150;8.568;2022-08-04T02:00:58;2.10;;;1.80;;
14078;SDS011;7115;50.150;8.568;2022-08-04T02:03:34;3.07;;;1.70;;
14078;SDS011;7115;50.150;8.568;2022-08-04T02:06:30;5.97;;;2.00;;
14078;SDS011;7115;50.150;8.568;2022-08-04T02:09:03;1.87;;;1.77;;
14078;SDS011;7115;50.150;8.568;2022-08-04T02:17:25;2.00;;;1.80;;
14078;SDS011;7115;50.150;8.568;2022-08-04T02:20:14;2.17;;;1.70;;
14078;SDS011;7115;50.150;8.568;2022-08-04T02:22:57;2.73;;;2.20;;
14078;SDS011;7115;50.150;8.568;2022-08-04T02:25:27;2.70;;;1.60;;
14078;SDS011;7115;50.150;8.568;2022-08-04T02:30:35;2.37;;;1.70;;
14078;SDS011;7115;50.150;8.568;2022-08-04T02:33:12;3.83;;;1.90;;
14078;SDS011;7115;50.150;8.568;2022-08-04T02:35:43;3.97;;;1.97;;
14078;SDS011;7115;50.150;8.568;2022-08-04T02:41:06;2.60;;;2.00;;
14078;SDS011;7115;50.150;8.568;2022-08-04T02:43:36;2.33;;;1.80;;
14078;SDS011;7115;50.150;8.568;2022-08-04T02:46:18;2.30;;;1.87;;
14078;SDS011;7115;50.150;8.568;2022-08-04T02:48:47;2.60;;;1.70;;
14078;SDS011;7115;50.150;8.568;2022-08-04T02:51:18;4.27;;;2.00;;
14078;SDS011;7115;50.150;8.568;2022-08-04T02:53:55;4.80;;;2.03;;
14078;SDS011;7115;50.150;8.568;2022-08-04T02:56:24;1.97;;;1.80;;
14078;SDS011;7115;50.150;8.568;2022-08-04T02:59:00;2.20;;;2.00;;
14078;SDS011;7115;50.150;8.568;2022-08-04T03:01:29;2.47;;;1.87;;
14078;SDS011;7115;50.150;8.568;2022-08-04T03:12:32;2.57;;;1.93;;
14078;SDS011;7115;50.150;8.568;2022-08-04T03:51:47;2.57;;;1.87;;
14078;SDS011;7115;50.150;8.568;2022-08-04T04:00:00;4.17;;;1.93;;
14078;SDS011;7115;50.150;8.568;2022-08-04T04:17:18;2.60;;;2.40;;
14078;SDS011;7115;50.150;8.568;2022-08-04T04:20:19;4.53;;;2.93;;
14078;SDS011;7115;50.150;8.568;2022-08-04T04:23:07;7.10;;;3.60;;
14078;SDS011;7115;50.150;8.568;2022-08-04T04:37:24;10.53;;;4.10;;
14078;SDS011;7115;50.150;8.568;2022-08-04T04:53:48;3.37;;;2.63;;
14078;SDS011;7115;50.150;8.568;2022-08-04T04:59:01;5.27;;;2.90;;
14078;SDS011;7115;50.150;8.568;2022-08-04T05:07:08;6.17;;;2.20;;
14078;SDS011;7115;50.150;8.568;2022-08-04T05:10:15;2.90;;;2.50;;
14078;SDS011;7115;50.150;8.568;2022-08-04T05:13:30;5.50;;;2.37;;
14078;SDS011;7115;50.150;8.568;2022-08-04T05:24:11;3.97;;;2.27;;
14078;SDS011;7115;50.150;8.568;2022-08-04T05:26:43;7.00;;;2.80;;
14078;SDS011;7115;50.150;8.568;2022-08-04T05:29:17;10.33;;;3.33;;
14078;SDS011;7115;50.150;8.568;2022-08-04T05:32:02;17.67;;;5.47;;
14078;SDS011;7115;50.150;8.568;2022-08-04T05:34:34;17.43;;;4.57;;
14078;SDS011;7115;50.150;8.568;2022-08-04T05:37:08;21.30;;;9.20;;
14078;SDS011;7115;50.150;8.568;2022-08-04T05:39:45;10.40;;;4.80;;
14078;SDS011;7115;50.150;8.568;2022-08-04T05:42:24;19.53;;;5.77;;
14078;SDS011;7115;50.150;8.568;2022-08-04T05:44:52;10.73;;;4.30;;
14078;SDS011;7115;50.150;8.568;2022-08-04T05:47:20;4.73;;;2.90;;
14078;SDS011;7115;50.150;8.568;2022-08-04T05:49:48;7.93;;;2.93;;
14078;SDS011;7115;50.150;8.568;2022-08-04T05:52:28;5.67;;;2.43;;
14078;SDS011;7115;50.150;8.568;2022-08-04T05:54:56;10.27;;;2.70;;
14078;SDS011;7115;50.150;8.568;2022-08-04T05:57:25;3.77;;;2.27;;
14078;SDS011;7115;50.150;8.568;2022-08-04T05:59:52;6.53;;;2.40;;
14078;SDS011;7115;50.150;8.568;2022-08-04T06:02:22;5.73;;;2.50;;
14078;SDS011;7115;50.150;8.568;2022-08-04T06:04:50;4.57;;;2.03;;
14078;SDS011;7115;50.150;8.568;2022-08-04T06:07:18;4.17;;;2.23;;
14078;SDS011;7115;50.150;8.568;2022-08-04T06:09:45;5.87;;;2.57;;
14078;SDS011;7115;50.150;8.568;2022-08-04T06:12:20;5.53;;;2.23;;
14078;SDS011;7115;50.150;8.568;2022-08-04T06:14:52;3.30;;;2.30;;
14078;SDS011;7115;50.150;8.568;2022-08-04T06:17:26;3.43;;;1.90;;
14078;SDS011;7115;50.150;8.568;2022-08-04T06:20:18;12.17;;;3.03;;
14078;SDS011;7115;50.150;8.568;2022-08-04T06:22:50;11.83;;;2.50;;
14078;SDS011;7115;50.150;8.568;2022-08-04T06:25:21;7.67;;;2.57;;
14078;SDS011;7115;50.150;8.568;2022-08-04T06:27:50;6.77;;;2.70;;
14078;SDS011;7115;50.150;8.568;2022-08-04T06:30:17;8.20;;;2.47;;
14078;SDS011;7115;50.150;8.568;2022-08-04T06:32:45;7.40;;;3.37;;
14078;SDS011;7115;50.150;8.568;2022-08-04T06:35:15;5.43;;;2.27;;
14078;SDS011;7115;50.150;8.568;2022-08-04T06:37:44;12.43;;;2.50;;
14078;SDS011;7115;50.150;8.568;2022-08-04T06:40:13;8.27;;;2.40;;
14078;SDS011;7115;50.150;8.568;2022-08-04T06:42:57;7.60;;;2.60;;
14078;SDS011;7115;50.150;8.568;2022-08-04T06:45:24;9.33;;;2.30;;
14078;SDS011;7115;50.150;8.568;2022-08-04T06:47:52;8.50;;;2.30;;
14078;SDS011;7115;50.150;8.568;2022-08-04T06:50:21;19.33;;;2.53;;
14078;SDS011;7115;50.150;8.568;2022-08-04T06:53:08;10.73;;;3.40;;
14078;SDS011;7115;50.150;8.568;2022-08-04T06:55:35;6.70;;;2.80;;
14078;SDS011;7115;50.150;8.568;2022-08-04T06:58:03;8.80;;;2.20;;
14078;SDS011;7115;50.150;8.568;2022-08-04T07:00:31;5.23;;;1.90;;
14078;SDS011;7115;50.150;8.568;2022-08-04T07:03:00;6.50;;;2.43;;
14078;SDS011;7115;50.150;8.568;2022-08-04T07:05:28;2.73;;;2.20;;
14078;SDS011;7115;50.150;8.568;2022-08-04T07:07:56;5.47;;;1.90;;
14078;SDS011;7115;50.150;8.568;2022-08-04T07:10:27;4.23;;;1.80;;
14078;SDS011;7115;50.150;8.568;2022-08-04T07:12:58;3.77;;;1.93;;
14078;SDS011;7115;50.150;8.568;2022-08-04T07:15:25;3.13;;;1.83;;
14078;SDS011;7115;50.150;8.568;2022-08-04T07:17:53;2.90;;;1.97;;
14078;SDS011;7115;50.150;8.568;2022-08-04T07:20:25;2.83;;;2.03;;
14078;SDS011;7115;50.150;8.568;2022-08-04T07:23:01;2.37;;;1.80;;
14078;SDS011;7115;50.150;8.568;2022-08-04T07:25:34;2.10;;;1.87;;
14078;SDS011;7115;50.150;8.568;2022-08-04T07:28:22;2.80;;;1.60;;
14078;SDS011;7115;50.150;8.568;2022-08-04T07:30:54;5.40;;;2.13;;
14078;SDS011;7115;50.150;8.568;2022-08-04T07:33:22;3.10;;;1.90;;
14078;SDS011;7115;50.150;8.568;2022-08-04T07:35:52;2.90;;;1.90;;
14078;SDS011;7115;50.150;8.568;2022-08-04T07:38:40;7.27;;;2.10;;
14078;SDS011;7115;50.150;8.568;2022-08-04T07:41:18;2.40;;;1.87;;
14078;SDS011;7115;50.150;8.568;2022-08-04T07:44:04;1.70;;;1.60;;
14078;SDS011;7115;50.150;8.568;2022-08-04T07:46:32;3.00;;;1.80;;
14078;SDS011;7115;50.150;8.568;2022-08-04T07:48:59;3.13;;;1.63;;
14078;SDS011;7115;50.150;8.568;2022-08-04T07:51:26;4.03;;;1.87;;
14078;SDS011;7115;50.150;8.568;2022-08-04T07:53:56;4.80;;;2.20;;
14078;SDS011;7115;50.150;8.568;2022-08-04T07:56:24;5.30;;;1.80;;
14078;SDS011;7115;50.150;8.568;2022-08-04T07:58:52;2.73;;;2.17;;
14078;SDS011;7115;50.150;8.568;2022-08-04T08:01:19;2.80;;;1.80;;
14078;SDS011;7115;50.150;8.568;2022-08-04T08:03:47;2.97;;;1.77;;
14078;SDS011;7115;50.150;8.568;2022-08-04T08:06:16;4.57;;;1.63;;
14078;SDS011;7115;50.150;8.568;2022-08-04T08:08:58;2.30;;;2.10;;
14078;SDS011;7115;50.150;8.568;2022-08-04T08:11:37;5.27;;;1.90;;
14078;SDS011;7115;50.150;8.568;2022-08-04T08:14:25;1.90;;;1.60;;
14078;SDS011;7115;50.150;8.568;2022-08-04T08:16:53;1.60;;;1.50;;
14078;SDS011;7115;50.150;8.568;2022-08-04T08:19:20;2.73;;;1.70;;
14078;SDS011;7115;50.150;8.568;2022-08-04T08:21:47;5.03;;;1.90;;
14078;SDS011;7115;50.150;8.568;2022-08-04T08:24:25;3.33;;;1.77;;
14078;SDS011;7115;50.150;8.568;2022-08-04T08:26:53;2.37;;;1.60;;
14078;SDS011;7115;50.150;8.568;2022-08-04T08:29:21;1.70;;;1.60;;
14078;SDS011;7115;50.150;8.568;2022-08-04T08:31:49;3.07;;;1.67;;
14078;SDS011;7115;50.150;8.568;2022-08-04T08:34:25;3.60;;;1.77;;
14078;SDS011;7115;50.150;8.568;2022-08-04T08:37:03;3.27;;;1.90;;
14078;SDS011;7115;50.150;8.568;2022-08-04T08:39:37;2.50;;;1.73;;
14078;SDS011;7115;50.150;8.568;2022-08-04T08:50:50;5.53;;;1.57;;
14078;SDS011;7115;50.150;8.568;2022-08-04T09:12:58;2.60;;;1.67;;
14078;SDS011;7115;50.150;8.568;2022-08-04T09:21:17;2.00;;;1.77;;
14078;SDS011;7115;50.150;8.568;2022-08-04T09:27:04;3.80;;;2.10;;
14078;SDS011;7115;50.150;8.568;2022-08-04T09:32:16;2.50;;;2.17;;
14078;SDS011;7115;50.150;8.568;2022-08-04T09:35:16;2.20;;;1.47;;
14078;SDS011;7115;50.150;8.568;2022-08-04T09:38:12;5.07;;;1.80;;
14078;SDS011;7115;50.150;8.568;2022-08-04T09:41:02;4.70;;;2.00;;
14078;SDS011;7115;50.150;8.568;2022-08-04T09:47:19;6.37;;;2.10;;
14078;SDS011;7115;50.150;8.568;2022-08-04T10:01:07;4.30;;;2.43;;
14078;SDS011;7115;50.150;8.568;2022-08-04T10:03:37;3.97;;;2.13;;
14078;SDS011;7115;50.150;8.568;2022-08-04T10:20:10;2.80;;;2.00;;
14078;SDS011;7115;50.150;8.568;2022-08-04T10:23:09;2.80;;;2.17;;
14078;SDS011;7115;50.150;8.568;2022-08-04T10:28:40;4.60;;;2.20;;
14078;SDS011;7115;50.150;8.568;2022-08-04T10:31:16;4.20;;;2.13;;
14078;SDS011;7115;50.150;8.568;2022-08-04T10:33:49;6.07;;;2.03;;
14078;SDS011;7115;50.150;8.568;2022-08-04T10:36:24;2.70;;;2.00;;
14078;SDS011;7115;50.150;8.568;2022-08-04T10:46:56;4.80;;;2.00;;
14078;SDS011;7115;50.150;8.568;2022-08-04T10:52:14;2.00;;;1.80;;
14078;SDS011;7115;50.150;8.568;2022-08-04T10:54:50;5.67;;;1.80;;
14078;SDS011;7115;50.150;8.568;2022-08-04T10:57:43;3.33;;;1.77;;
14078;SDS011;7115;50.150;8.568;2022-08-04T11:00:16;5.17;;;2.20;;
14078;SDS011;7115;50.150;8.568;2022-08-04T11:11:25;3.27;;;1.47;;
14078;SDS011;7115;50.150;8.568;2022-08-04T11:14:43;4.27;;;1.90;;
14078;SDS011;7115;50.150;8.568;2022-08-04T11:17:31;4.33;;;1.50;;
14078;SDS011;7115;50.150;8.568;2022-08-04T11:23:09;3.13;;;1.40;;
14078;SDS011;7115;50.150;8.568;2022-08-04T11:25:59;6.80;;;1.75;;
14078;SDS011;7115;50.150;8.568;2022-08-04T11:31:40;1.67;;;1.40;;
14078;SDS011;7115;50.150;8.568;2022-08-04T11:34:23;3.08;;;1.40;;
14078;SDS011;7115;50.150;8.568;2022-08-04T11:39:49;1.95;;;1.40;;
14078;SDS011;7115;50.150;8.568;2022-08-04T11:48:15;1.67;;;1.25;;
14078;SDS011;7115;50.150;8.568;2022-08-04T11:50:41;2.65;;;1.40;;
14078;SDS011;7115;50.150;8.568;2022-08-04T11:53:22;2.40;;;1.20;;
14078;SDS011;7115;50.150;8.568;2022-08-04T11:55:57;1.02;;;0.93;;
14078;SDS011;7115;50.150;8.568;2022-08-04T11:58:34;0.98;;;0.90;;
14078;SDS011;7115;50.150;8.568;2022-08-04T12:06:44;1.20;;;1.10;;
14078;SDS011;7115;50.150;8.568;2022-08-04T12:17:47;1.23;;;1.00;;
14078;SDS011;7115;50.150;8.568;2022-08-04T12:20:38;1.38;;;0.85;;
14078;SDS011;7115;50.150;8.568;2022-08-04T12:23:20;1.05;;;0.90;;
14078;SDS011;7115;50.150;8.568;2022-08-04T12:25:51;1.67;;;0.80;;
14078;SDS011;7115;50.150;8.568;2022-08-04T12:28:25;0.82;;;0.75;;
14078;SDS011;7115;50.150;8.568;2022-08-04T12:36:50;1.10;;;0.80;;
14078;SDS011;7115;50.150;8.568;2022-08-04T12:39:24;1.90;;;0.80;;
14078;SDS011;7115;50.150;8.568;2022-08-04T12:42:01;3.08;;;0.98;;
14078;SDS011;7115;50.150;8.568;2022-08-04T12:44:34;2.85;;;1.17;;
14078;SDS011;7115;50.150;8.568;2022-08-04T12:47:07;1.95;;;1.13;;
14078;SDS011;7115;50.150;8.568;2022-08-04T12:49:54;1.50;;;1.33;;
14078;SDS011;7115;50.150;8.568;2022-08-04T12:52:29;3.83;;;1.30;;
14078;SDS011;7115;50.150;8.568;2022-08-04T12:55:18;2.38;;;1.27;;
14078;SDS011;7115;50.150;8.568;2022-08-04T12:57:48;4.20;;;1.10;;
14078;SDS011;7115;50.150;8.568;2022-08-04T13:00:27;2.28;;;1.20;;
14078;SDS011;7115;50.150;8.568;2022-08-04T13:03:07;1.20;;;1.10;;
14078;SDS011;7115;50.150;8.568;2022-08-04T13:05:38;2.63;;;1.00;;
14078;SDS011;7115;50.150;8.568;2022-08-04T13:08:06;1.10;;;1.00;;
14078;SDS011;7115;50.150;8.568;2022-08-04T13:10:39;1.98;;;1.00;;
14078;SDS011;7115;50.150;8.568;2022-08-04T13:13:14;5.57;;;1.30;;
14078;SDS011;7115;50.150;8.568;2022-08-04T13:18:27;1.85;;;1.38;;
14078;SDS011;7115;50.150;8.568;2022-08-04T13:24:06;3.17;;;1.35;;
14078;SDS011;7115;50.150;8.568;2022-08-04T13:27:03;1.77;;;1.30;;
14078;SDS011;7115;50.150;8.568;2022-08-04T13:29:40;2.80;;;1.30;;
14078;SDS011;7115;50.150;8.568;2022-08-04T13:32:28;1.25;;;1.15;;
14078;SDS011;7115;50.150;8.568;2022-08-04T13:34:59;2.63;;;1.30;;
14078;SDS011;7115;50.150;8.568;2022-08-04T13:37:31;1.63;;;1.20;;
14078;SDS011;7115;50.150;8.568;2022-08-04T13:40:02;1.38;;;1.27;;
14078;SDS011;7115;50.150;8.568;2022-08-04T13:42:32;1.98;;;1.20;;
14078;SDS011;7115;50.150;8.568;2022-08-04T13:45:01;1.15;;;1.08;;
14078;SDS011;7115;50.150;8.568;2022-08-04T13:47:30;2.35;;;1.58;;
14078;SDS011;7115;50.150;8.568;2022-08-04T13:50:11;2.40;;;1.45;;
14078;SDS011;7115;50.150;8.568;2022-08-04T13:52:45;1.10;;;1.00;;
14078;SDS011;7115;50.150;8.568;2022-08-04T13:55:19;1.45;;;1.35;;
14078;SDS011;7115;50.150;8.568;2022-08-04T13:58:00;5.57;;;1.40;;
14078;SDS011;7115;50.150;8.568;2022-08-04T14:00:41;2.00;;;1.40;;
14078;SDS011;7115;50.150;8.568;2022-08-04T14:03:37;2.08;;;1.20;;
14078;SDS011;7115;50.150;8.568;2022-08-04T14:09:01;3.38;;;1.25;;
14078;SDS011;7115;50.150;8.568;2022-08-04T14:11:47;1.65;;;1.23;;
14078;SDS011;7115;50.150;8.568;2022-08-04T14:14:36;1.63;;;1.25;;
14078;SDS011;7115;50.150;8.568;2022-08-04T14:17:15;8.00;;;1.45;;
14078;SDS011;7115;50.150;8.568;2022-08-04T14:33:04;3.90;;;1.75;;
14078;SDS011;7115;50.150;8.568;2022-08-04T14:35:58;2.67;;;1.80;;
14078;SDS011;7115;50.150;8.568;2022-08-04T14:38:42;2.35;;;1.20;;
14078;SDS011;7115;50.150;8.568;2022-08-04T14:41:13;3.58;;;1.20;;
14078;SDS011;7115;50.150;8.568;2022-08-04T14:43:49;2.55;;;1.00;;
14078;SDS011;7115;50.150;8.568;2022-08-04T14:46:24;1.88;;;1.17;;
14078;SDS011;7115;50.150;8.568;2022-08-04T14:49:09;5.40;;;1.60;;
14078;SDS011;7115;50.150;8.568;2022-08-04T14:51:39;1.98;;;1.40;;
14078;SDS011;7115;50.150;8.568;2022-08-04T14:54:09;4.07;;;1.30;;
14078;SDS011;7115;50.150;8.568;2022-08-04T14:56:50;4.72;;;2.10;;
14078;SDS011;7115;50.150;8.568;2022-08-04T14:59:18;2.72;;;1.10;;
14078;SDS011;7115;50.150;8.568;2022-08-04T15:01:45;1.15;;;1.08;;
14078;SDS011;7115;50.150;8.568;2022-08-04T15:04:26;2.22;;;1.38;;
14078;SDS011;7115;50.150;8.568;2022-08-04T15:06:56;1.83;;;1.45;;
14078;SDS011;7115;50.150;8.568;2022-08-04T15:09:25;2.50;;;1.50;;
14078;SDS011;7115;50.150;8.568;2022-08-04T15:11:53;2.10;;;1.45;;
14078;SDS011;7115;50.150;8.568;2022-08-04T15:14:20;1.48;;;1.27;;
14078;SDS011;7115;50.150;8.568;2022-08-04T15:17:03;1.75;;;1.25;;
14078;SDS011;7115;50.150;8.568;2022-08-04T15:19:51;1.60;;;1.50;;
14078;SDS011;7115;50.150;8.568;2022-08-04T15:22:21;2.55;;;1.30;;
14078;SDS011;7115;50.150;8.568;2022-08-04T15:24:48;2.97;;;1.38;;
14078;SDS011;7115;50.150;8.568;2022-08-04T15:27:20;4.53;;;1.40;;
14078;SDS011;7115;50.150;8.568;2022-08-04T15:29:56;2.53;;;1.20;;
14078;SDS011;7115;50.150;8.568;2022-08-04T15:32:28;3.47;;;1.30;;
14078;SDS011;7115;50.150;8.568;2022-08-04T15:35:19;3.40;;;1.50;;
14078;SDS011;7115;50.150;8.568;2022-08-04T15:38:02;1.38;;;1.27;;
14078;SDS011;7115;50.150;8.568;2022-08-04T15:46:25;4.47;;;1.15;;
14078;SDS011;7115;50.150;8.568;2022-08-04T15:49:21;1.85;;;1.35;;
14078;SDS011;7115;50.150;8.568;2022-08-04T15:51:59;3.75;;;1.38;;
14078;SDS011;7115;50.150;8.568;2022-08-04T15:54:26;2.53;;;1.23;;
14078;SDS011;7115;50.150;8.568;2022-08-04T15:56:58;1.90;;;1.23;;
14078;SDS011;7115;50.150;8.568;2022-08-04T16:10:40;3.45;;;1.55;;
14078;SDS011;7115;50.150;8.568;2022-08-04T16:13:10;1.30;;;1.20;;
14078;SDS011;7115;50.150;8.568;2022-08-04T16:18:19;6.03;;;1.40;;
14078;SDS011;7115;50.150;8.568;2022-08-04T16:20:57;2.58;;;1.10;;
14078;SDS011;7115;50.150;8.568;2022-08-04T16:34:33;2.30;;;1.20;;
14078;SDS011;7115;50.150;8.568;2022-08-04T16:37:16;2.67;;;1.20;;
14078;SDS011;7115;50.150;8.568;2022-08-04T16:39:45;6.57;;;1.27;;
14078;SDS011;7115;50.150;8.568;2022-08-04T16:45:09;2.13;;;1.13;;
14078;SDS011;7115;50.150;8.568;2022-08-04T16:48:19;1.20;;;1.10;;
14078;SDS011;7115;50.150;8.568;2022-08-04T16:50:27;3.83;;;1.30;;
14078;SDS011;7115;50.150;8.568;2022-08-04T16:52:54;3.00;;;1.20;;
14078;SDS011;7115;50.150;8.568;2022-08-04T16:55:24;2.58;;;1.42;;
14078;SDS011;7115;50.150;8.568;2022-08-04T16:57:56;1.75;;;1.15;;
14078;SDS011;7115;50.150;8.568;2022-08-04T17:00:28;2.65;;;1.17;;
14078;SDS011;7115;50.150;8.568;2022-08-04T17:03:05;3.38;;;1.48;;
14078;SDS011;7115;50.150;8.568;2022-08-04T17:05:34;1.83;;;1.10;;
14078;SDS011;7115;50.150;8.568;2022-08-04T17:08:05;3.50;;;1.10;;
14078;SDS011;7115;50.150;8.568;2022-08-04T17:10:54;4.40;;;1.20;;
14078;SDS011;7115;50.150;8.568;2022-08-04T17:16:14;1.75;;;1.23;;
14078;SDS011;7115;50.150;8.568;2022-08-04T17:18:46;1.60;;;1.00;;
14078;SDS011;7115;50.150;8.568;2022-08-04T17:21:22;1.15;;;1.05;;
14078;SDS011;7115;50.150;8.568;2022-08-04T17:23:55;2.90;;;1.10;;
14078;SDS011;7115;50.150;8.568;2022-08-04T17:26:42;1.90;;;1.10;;
14078;SDS011;7115;50.150;8.568;2022-08-04T17:29:20;1.80;;;1.23;;
14078;SDS011;7115;50.150;8.568;2022-08-04T17:32:16;11.40;;;1.73;;
14078;SDS011;7115;50.150;8.568;2022-08-04T17:34:50;3.63;;;1.63;;
14078;SDS011;7115;50.150;8.568;2022-08-04T17:37:22;2.57;;;1.40;;
14078;SDS011;7115;50.150;8.568;2022-08-04T17:40:06;2.90;;;1.60;;
14078;SDS011;7115;50.150;8.568;2022-08-04T17:42:36;1.80;;;1.13;;
14078;SDS011;7115;50.150;8.568;2022-08-04T17:45:26;2.33;;;1.13;;
14078;SDS011;7115;50.150;8.568;2022-08-04T17:48:18;1.97;;;1.30;;
14078;SDS011;7115;50.150;8.568;2022-08-04T17:51:14;1.33;;;1.07;;
14078;SDS011;7115;50.150;8.568;2022-08-04T17:53:43;3.70;;;1.00;;
14078;SDS011;7115;50.150;8.568;2022-08-04T17:56:32;3.03;;;1.10;;
14078;SDS011;7115;50.150;8.568;2022-08-04T17:59:21;3.27;;;1.20;;
14078;SDS011;7115;50.150;8.568;2022-08-04T18:02:08;1.87;;;1.27;;
14078;SDS011;7115;50.150;8.568;2022-08-04T18:04:48;1.70;;;1.40;;
14078;SDS011;7115;50.150;8.568;2022-08-04T18:07:40;2.87;;;1.57;;
14078;SDS011;7115;50.150;8.568;2022-08-04T18:10:37;2.47;;;1.00;;
14078;SDS011;7115;50.150;8.568;2022-08-04T18:13:19;1.87;;;1.17;;
14078;SDS011;7115;50.150;8.568;2022-08-04T18:15:48;4.17;;;1.57;;
14078;SDS011;7115;50.150;8.568;2022-08-04T18:18:17;2.13;;;1.17;;
14078;SDS011;7115;50.150;8.568;2022-08-04T18:20:49;1.70;;;1.10;;
14078;SDS011;7115;50.150;8.568;2022-08-04T18:23:15;2.23;;;1.60;;
14078;SDS011;7115;50.150;8.568;2022-08-04T18:25:45;4.10;;;1.30;;
14078;SDS011;7115;50.150;8.568;2022-08-04T18:28:17;2.27;;;1.23;;
14078;SDS011;7115;50.150;8.568;2022-08-04T18:30:53;2.70;;;2.20;;
14078;SDS011;7115;50.150;8.568;2022-08-04T18:33:21;2.73;;;1.00;;
14078;SDS011;7115;50.150;8.568;2022-08-04T18:36:06;2.43;;;1.47;;
14078;SDS011;7115;50.150;8.568;2022-08-04T18:38:52;4.67;;;1.40;;
14078;SDS011;7115;50.150;8.568;2022-08-04T18:41:24;2.03;;;1.03;;
14078;SDS011;7115;50.150;8.568;2022-08-04T18:44:14;1.47;;;1.23;;
14078;SDS011;7115;50.150;8.568;2022-08-04T18:46:42;3.13;;;1.30;;
14078;SDS011;7115;50.150;8.568;2022-08-04T18:49:18;2.40;;;1.20;;
14078;SDS011;7115;50.150;8.568;2022-08-04T18:52:05;3.23;;;1.40;;
14078;SDS011;7115;50.150;8.568;2022-08-04T18:54:40;4.13;;;1.20;;
14078;SDS011;7115;50.150;8.568;2022-08-04T18:57:07;3.13;;;1.27;;
14078;SDS011;7115;50.150;8.568;2022-08-04T18:59:54;5.00;;;1.73;;
14078;SDS011;7115;50.150;8.568;2022-08-04T19:02:21;1.13;;;1.00;;
14078;SDS011;7115;50.150;8.568;2022-08-04T19:04:51;1.33;;;1.10;;
14078;SDS011;7115;50.150;8.568;2022-08-04T19:07:18;1.40;;;1.27;;
14078;SDS011;7115;50.150;8.568;2022-08-04T19:09:55;3.50;;;1.20;;
14078;SDS011;7115;50.150;8.568;2022-08-04T19:12:23;2.30;;;1.40;;
14078;SDS011;7115;50.150;8.568;2022-08-04T19:14:52;1.83;;;1.00;;
14078;SDS011;7115;50.150;8.568;2022-08-04T19:17:36;2.63;;;1.10;;
14078;SDS011;7115;50.150;8.568;2022-08-04T19:20:23;3.40;;;1.23;;
14078;SDS011;7115;50.150;8.568;2022-08-04T19:22:52;2.60;;;1.23;;
14078;SDS011;7115;50.150;8.568;2022-08-04T19:25:39;3.43;;;1.10;;
14078;SDS011;7115;50.150;8.568;2022-08-04T19:28:27;4.17;;;1.30;;
14078;SDS011;7115;50.150;8.568;2022-08-04T19:31:07;4.63;;;1.73;;
14078;SDS011;7115;50.150;8.568;2022-08-04T19:33:35;5.67;;;1.37;;
14078;SDS011;7115;50.150;8.568;2022-08-04T19:36:24;3.63;;;1.20;;
14078;SDS011;7115;50.150;8.568;2022-08-04T19:38:56;1.77;;;1.10;;
14078;SDS011;7115;50.150;8.568;2022-08-04T19:41:25;3.97;;;1.30;;
14078;SDS011;7115;50.150;8.568;2022-08-04T19:43:53;2.90;;;1.27;;
14078;SDS011;7115;50.150;8.568;2022-08-04T19:46:20;2.63;;;1.30;;
14078;SDS011;7115;50.150;8.568;2022-08-04T19:48:50;5.27;;;1.40;;
14078;SDS011;7115;50.150;8.568;2022-08-04T19:51:26;5.43;;;1.30;;
14078;SDS011;7115;50.150;8.568;2022-08-04T19:53:53;2.47;;;1.50;;
14078;SDS011;7115;50.150;8.568;2022-08-04T19:56:40;3.87;;;1.47;;
14078;SDS011;7115;50.150;8.568;2022-08-04T19:59:07;3.40;;;1.80;;
14078;SDS011;7115;50.150;8.568;2022-08-04T20:01:35;3.27;;;1.37;;
14078;SDS011;7115;50.150;8.568;2022-08-04T20:04:10;5.63;;;1.40;;
14078;SDS011;7115;50.150;8.568;2022-08-04T20:06:37;4.63;;;1.33;;
14078;SDS011;7115;50.150;8.568;2022-08-04T20:09:04;6.23;;;1.20;;
14078;SDS011;7115;50.150;8.568;2022-08-04T20:11:52;6.40;;;1.53;;
14078;SDS011;7115;50.150;8.568;2022-08-04T20:14:25;6.83;;;1.37;;
14078;SDS011;7115;50.150;8.568;2022-08-04T20:17:02;3.93;;;1.40;;
14078;SDS011;7115;50.150;8.568;2022-08-04T20:19:35;4.63;;;1.70;;
14078;SDS011;7115;50.150;8.568;2022-08-04T20:22:02;2.93;;;1.20;;
14078;SDS011;7115;50.150;8.568;2022-08-04T20:24:29;1.73;;;1.30;;
14078;SDS011;7115;50.150;8.568;2022-08-04T20:27:09;3.07;;;1.60;;
14078;SDS011;7115;50.150;8.568;2022-08-04T20:29:42;5.73;;;1.73;;
14078;SDS011;7115;50.150;8.568;2022-08-04T20:32:30;5.37;;;1.30;;
14078;SDS011;7115;50.150;8.568;2022-08-04T20:34:57;2.27;;;2.07;;
14078;SDS011;7115;50.150;8.568;2022-08-04T20:37:24;5.10;;;1.83;;
14078;SDS011;7115;50.150;8.568;2022-08-04T20:40:13;5.60;;;1.70;;
14078;SDS011;7115;50.150;8.568;2022-08-04T20:42:39;5.00;;;1.47;;
14078;SDS011;7115;50.150;8.568;2022-08-04T20:45:11;3.10;;;1.70;;
14078;SDS011;7115;50.150;8.568;2022-08-04T20:47:42;3.97;;;1.70;;
14078;SDS011;7115;50.150;8.568;2022-08-04T20:50:18;3.83;;;1.87;;
14078;SDS011;7115;50.150;8.568;2022-08-04T20:52:55;4.40;;;1.70;;
14078;SDS011;7115;50.150;8.568;2022-08-04T20:55:23;5.33;;;1.80;;
14078;SDS011;7115;50.150;8.568;2022-08-04T20:57:54;4.33;;;1.60;;
14078;SDS011;7115;50.150;8.568;2022-08-04T21:00:29;4.73;;;1.43;;
14078;SDS011;7115;50.150;8.568;2022-08-04T21:02:59;4.43;;;1.50;;
14078;SDS011;7115;50.150;8.568;2022-08-04T21:05:26;7.23;;;1.93;;
14078;SDS011;7115;50.150;8.568;2022-08-04T21:07:57;5.30;;;3.50;;
14078;SDS011;7115;50.150;8.568;2022-08-04T21:10:24;3.93;;;1.57;;
14078;SDS011;7115;50.150;8.568;2022-08-04T21:12:51;3.57;;;2.30;;
14078;SDS011;7115;50.150;8.568;2022-08-04T21:15:19;2.80;;;1.57;;
14078;SDS011;7115;50.150;8.568;2022-08-04T21:17:51;4.53;;;1.70;;
14078;SDS011;7115;50.150;8.568;2022-08-04T21:20:28;4.27;;;1.50;;
14078;SDS011;7115;50.150;8.568;2022-08-04T21:22:56;3.50;;;1.80;;
14078;SDS011;7115;50.150;8.568;2022-08-04T21:25:43;7.23;;;2.50;;
14078;SDS011;7115;50.150;8.568;2022-08-04T21:28:16;7.33;;;1.87;;
14078;SDS011;7115;50.150;8.568;2022-08-04T21:30:45;5.80;;;3.63;;
14078;SDS011;7115;50.150;8.568;2022-08-04T21:33:21;3.43;;;1.50;;
14078;SDS011;7115;50.150;8.568;2022-08-04T21:36:09;5.17;;;1.90;;
14078;SDS011;7115;50.150;8.568;2022-08-04T21:38:37;5.30;;;1.60;;